createdAt,value
2023-01-06T00:00:29.794Z,52.85
2023-01-06T00:01:29.679Z,48.34
2023-01-06T00:02:29.769Z,53.66
2023-01-06T00:03:29.769Z,57.20
2023-01-06T00:04:29.882Z,57.20
2023-01-06T00:05:29.599Z,52.05
2023-01-06T00:06:29.606Z,58.81
2023-01-06T00:07:29.714Z,49.63
2023-01-06T00:08:29.757Z,55.43
2023-01-06T00:09:29.640Z,55.11
2023-01-06T00:10:29.527Z,55.27
2023-01-06T00:11:29.552Z,47.86
2023-01-06T00:12:29.564Z,48.02
2023-01-06T00:13:29.561Z,55.75
2023-01-06T00:14:29.674Z,57.20
2023-01-06T00:15:29.521Z,49.47
2023-01-06T00:16:29.525Z,54.79
2023-01-06T00:17:29.500Z,51.24
2023-01-06T00:18:29.515Z,49.95
2023-01-06T00:19:29.490Z,56.07
2023-01-06T00:20:29.504Z,51.56
2023-01-06T00:21:29.460Z,54.46
2023-01-06T00:22:29.504Z,56.07
2023-01-06T00:23:29.548Z,53.01
2023-01-06T00:24:29.550Z,48.82
2023-01-06T00:25:29.437Z,58.81
2023-01-06T00:26:29.447Z,48.34
2023-01-06T00:27:29.437Z,53.66
2023-01-06T00:28:29.493Z,55.91
2023-01-06T00:29:29.433Z,55.43
2023-01-06T00:30:29.485Z,47.86
2023-01-06T00:31:29.501Z,52.05
2023-01-06T00:32:29.419Z,48.02
2023-01-06T00:33:29.478Z,51.88
2023-01-06T00:34:30.436Z,58.33
2023-01-06T00:35:29.405Z,58.65
2023-01-06T00:36:29.581Z,49.47
2023-01-06T00:37:29.422Z,50.11
2023-01-06T00:38:29.480Z,51.72
2023-01-06T00:39:29.386Z,50.27
2023-01-06T00:40:29.451Z,49.15
2023-01-06T00:41:29.378Z,47.70
2023-01-06T00:42:29.423Z,47.86
2023-01-06T00:43:29.460Z,48.18
2023-01-06T00:44:29.354Z,53.98
2023-01-06T00:45:29.473Z,55.59
2023-01-06T00:46:29.894Z,54.95
2023-01-06T00:47:29.337Z,48.18
2023-01-06T00:48:29.314Z,61.55
2023-01-06T00:49:29.366Z,60.26
2023-01-06T00:50:29.327Z,51.56
2023-01-06T00:51:29.312Z,56.88
2023-01-06T00:52:29.304Z,51.56
2023-01-06T00:53:29.307Z,47.86
2023-01-06T00:54:29.340Z,50.27
2023-01-06T00:55:29.347Z,50.43
2023-01-06T00:56:29.406Z,64.13
2023-01-06T00:57:29.273Z,61.39
2023-01-06T00:58:29.326Z,53.33
2023-01-06T00:59:29.274Z,51.72
2023-01-06T01:00:29.344Z,57.69
2023-01-06T01:01:29.358Z,55.27
2023-01-06T01:02:29.373Z,47.86
2023-01-06T01:03:29.234Z,47.86
2023-01-06T01:04:29.350Z,47.86
2023-01-06T01:05:30.286Z,61.23
2023-01-06T01:06:29.261Z,51.40
2023-01-06T01:07:29.252Z,48.18
2023-01-06T01:08:29.457Z,48.34
2023-01-06T01:09:29.255Z,48.02
2023-01-06T01:10:29.243Z,47.86
2023-01-06T01:11:29.251Z,48.02
2023-01-06T01:12:29.320Z,47.86
2023-01-06T01:13:29.191Z,50.27
2023-01-06T01:14:29.213Z,54.79
2023-01-06T01:15:29.348Z,49.79
2023-01-06T01:16:29.227Z,47.86
2023-01-06T01:17:29.215Z,48.02
2023-01-06T01:18:29.208Z,48.18
2023-01-06T01:19:29.172Z,57.04
2023-01-06T01:20:29.247Z,54.30
2023-01-06T01:21:29.168Z,49.31
2023-01-06T01:22:29.219Z,48.98
2023-01-06T01:23:29.257Z,47.86
2023-01-06T01:24:29.362Z,47.70
2023-01-06T01:25:29.125Z,47.86
2023-01-06T01:26:29.123Z,54.79
2023-01-06T01:27:29.142Z,51.40
2023-01-06T01:28:29.190Z,48.50
2023-01-06T01:29:29.130Z,57.04
2023-01-06T01:30:29.102Z,47.70
2023-01-06T01:31:29.217Z,52.69
2023-01-06T01:32:29.101Z,60.75
2023-01-06T01:33:29.113Z,48.66
2023-01-06T01:34:29.091Z,49.95
2023-01-06T01:35:29.101Z,49.79
2023-01-06T01:36:29.104Z,48.02
2023-01-06T01:37:29.066Z,47.70
2023-01-06T01:38:29.126Z,50.27
2023-01-06T01:39:29.061Z,57.85
2023-01-06T01:40:29.063Z,48.34
2023-01-06T01:41:29.063Z,47.86
2023-01-06T01:42:29.040Z,52.21
2023-01-06T01:43:29.079Z,58.49
2023-01-06T01:44:29.134Z,56.07
2023-01-06T01:45:29.024Z,48.82
2023-01-06T01:46:29.069Z,48.34
2023-01-06T01:47:29.041Z,47.86
2023-01-06T01:48:29.009Z,55.27
2023-01-06T01:49:29.045Z,56.07
2023-01-06T01:50:28.992Z,55.27
2023-01-06T01:51:28.988Z,52.37
2023-01-06T01:52:29.003Z,54.79
2023-01-06T01:53:28.984Z,51.24
2023-01-06T01:54:28.963Z,54.14
2023-01-06T01:55:28.997Z,53.82
2023-01-06T01:56:28.957Z,47.86
2023-01-06T01:57:28.996Z,53.33
2023-01-06T01:58:28.960Z,52.53
2023-01-06T01:59:28.928Z,58.81
2023-01-06T02:00:30.028Z,58.01
2023-01-06T02:01:29.064Z,50.27
2023-01-06T02:02:30.038Z,55.75
2023-01-06T02:03:28.921Z,48.98
2023-01-06T02:04:28.917Z,55.11
2023-01-06T02:05:28.942Z,57.69
2023-01-06T02:06:28.917Z,58.65
2023-01-06T02:07:28.893Z,48.02
2023-01-06T02:08:28.917Z,49.79
2023-01-06T02:09:28.892Z,58.17
2023-01-06T02:10:28.891Z,48.98
2023-01-06T02:11:28.897Z,49.95
2023-01-06T02:12:28.856Z,59.30
2023-01-06T02:13:28.886Z,56.72
2023-01-06T02:14:28.880Z,58.33
2023-01-06T02:15:28.860Z,55.59
2023-01-06T02:16:28.941Z,51.40
2023-01-06T02:17:28.849Z,56.72
2023-01-06T02:18:28.872Z,47.86
2023-01-06T02:19:28.848Z,47.86
2023-01-06T02:20:28.859Z,48.02
2023-01-06T02:21:28.983Z,47.86
2023-01-06T02:22:28.825Z,48.18
2023-01-06T02:23:28.847Z,47.86
2023-01-06T02:24:28.928Z,48.66
2023-01-06T02:25:28.787Z,48.34
2023-01-06T02:26:28.806Z,55.43
2023-01-06T02:27:28.787Z,57.69
2023-01-06T02:28:28.845Z,47.86
2023-01-06T02:29:28.846Z,47.86
2023-01-06T02:30:28.830Z,55.11
2023-01-06T02:31:28.896Z,48.34
2023-01-06T02:32:28.840Z,56.56
2023-01-06T02:33:28.826Z,55.43
2023-01-06T02:34:28.783Z,61.23
2023-01-06T02:35:28.760Z,58.17
2023-01-06T02:36:28.789Z,60.26
2023-01-06T02:37:28.726Z,56.72
2023-01-06T02:38:28.716Z,47.86
2023-01-06T02:39:28.716Z,56.07
2023-01-06T02:40:28.882Z,47.86
2023-01-06T02:41:28.723Z,55.43
2023-01-06T02:42:28.712Z,58.33
2023-01-06T02:43:28.712Z,55.11
2023-01-06T02:44:28.706Z,52.69
2023-01-06T02:45:28.727Z,59.62
2023-01-06T02:46:28.700Z,57.52
2023-01-06T02:47:28.673Z,49.95
2023-01-06T02:48:28.732Z,52.21
2023-01-06T02:49:28.670Z,51.72
2023-01-06T02:50:29.690Z,47.86
2023-01-06T02:51:28.686Z,48.50
2023-01-06T02:52:28.673Z,59.30
2023-01-06T02:53:28.633Z,59.62
2023-01-06T02:54:28.636Z,51.40
2023-01-06T02:55:28.637Z,49.79
2023-01-06T02:56:28.699Z,58.17
2023-01-06T02:57:28.616Z,47.86
2023-01-06T02:58:28.604Z,52.05
2023-01-06T02:59:28.615Z,56.07
2023-01-06T03:00:28.610Z,55.11
2023-01-06T03:01:28.757Z,56.07
2023-01-06T03:02:28.676Z,54.30
2023-01-06T03:03:28.614Z,57.69
2023-01-06T03:04:28.606Z,48.34
2023-01-06T03:05:28.557Z,47.86
2023-01-06T03:06:28.642Z,47.86
2023-01-06T03:07:28.571Z,49.63
2023-01-06T03:08:28.569Z,53.01
2023-01-06T03:09:28.591Z,48.02
2023-01-06T03:10:28.553Z,47.86
2023-01-06T03:11:28.596Z,57.69
2023-01-06T03:12:28.568Z,49.47
2023-01-06T03:13:28.578Z,49.15
2023-01-06T03:14:28.526Z,53.33
2023-01-06T03:15:28.528Z,51.08
2023-01-06T03:16:28.597Z,53.01
2023-01-06T03:17:28.531Z,53.01
2023-01-06T03:18:28.548Z,53.82
2023-01-06T03:19:28.612Z,48.02
2023-01-06T03:20:28.545Z,47.86
2023-01-06T03:21:28.483Z,47.86
2023-01-06T03:22:28.469Z,61.55
2023-01-06T03:23:29.540Z,48.34
2023-01-06T03:24:28.492Z,49.15
2023-01-06T03:25:28.498Z,48.18
2023-01-06T03:26:28.526Z,50.60
2023-01-06T03:27:28.463Z,49.47
2023-01-06T03:28:28.500Z,48.02
2023-01-06T03:29:28.491Z,48.34
2023-01-06T03:30:28.447Z,54.30
2023-01-06T03:31:28.475Z,50.11
2023-01-06T03:32:28.445Z,49.15
2023-01-06T03:33:28.449Z,50.11
2023-01-06T03:34:28.468Z,57.20
2023-01-06T03:35:28.420Z,48.02
2023-01-06T03:36:28.478Z,53.17
2023-01-06T03:37:28.434Z,48.18
2023-01-06T03:38:28.416Z,53.98
2023-01-06T03:39:28.380Z,57.69
2023-01-06T03:40:28.420Z,57.85
2023-01-06T03:41:28.517Z,48.02
2023-01-06T03:42:36.168Z,53.33
2023-01-06T03:43:30.402Z,49.63
2023-01-06T03:44:28.386Z,47.86
2023-01-06T03:45:28.350Z,48.66
2023-01-06T03:46:28.435Z,48.66
2023-01-06T03:47:28.339Z,51.88
2023-01-06T03:48:28.351Z,54.30
2023-01-06T03:49:28.362Z,56.24
2023-01-06T03:50:28.311Z,54.30
2023-01-06T03:51:28.351Z,55.43
2023-01-06T03:52:28.335Z,57.36
2023-01-06T03:53:28.312Z,54.62
2023-01-06T03:54:28.294Z,52.85
2023-01-06T03:55:28.355Z,56.24
2023-01-06T03:56:28.344Z,49.79
2023-01-06T03:57:28.314Z,48.18
2023-01-06T03:58:28.304Z,52.69
2023-01-06T03:59:28.281Z,57.52
2023-01-06T04:00:28.299Z,56.07
2023-01-06T04:01:28.303Z,60.59
2023-01-06T04:02:28.292Z,53.66
2023-01-06T04:03:28.256Z,59.78
2023-01-06T04:04:28.250Z,53.66
2023-01-06T04:05:28.251Z,49.47
2023-01-06T04:06:28.246Z,50.60
2023-01-06T04:07:28.286Z,59.46
2023-01-06T04:08:28.340Z,56.07
2023-01-06T04:09:28.209Z,54.62
2023-01-06T04:10:28.221Z,50.92
2023-01-06T04:11:28.206Z,59.78
2023-01-06T04:12:28.196Z,61.39
2023-01-06T04:13:28.211Z,56.07
2023-01-06T04:14:28.216Z,53.82
2023-01-06T04:15:28.238Z,48.82
2023-01-06T04:16:28.213Z,56.56
2023-01-06T04:17:28.174Z,54.14
2023-01-06T04:18:28.228Z,58.49
2023-01-06T04:19:28.168Z,59.78
2023-01-06T04:20:28.168Z,56.56
2023-01-06T04:21:28.182Z,56.88
2023-01-06T04:22:28.151Z,49.95
2023-01-06T04:23:28.164Z,56.72
2023-01-06T04:24:28.226Z,57.52
2023-01-06T04:25:29.148Z,55.27
2023-01-06T04:26:28.170Z,56.56
2023-01-06T04:27:28.166Z,58.49
2023-01-06T04:28:28.117Z,60.26
2023-01-06T04:29:28.140Z,60.10
2023-01-06T04:30:28.121Z,62.36
2023-01-06T04:31:28.136Z,57.36
2023-01-06T04:32:28.124Z,59.14
2023-01-06T04:33:28.103Z,55.59
2023-01-06T04:34:28.292Z,58.65
2023-01-06T04:35:28.084Z,60.26
2023-01-06T04:36:28.120Z,57.20
2023-01-06T04:37:28.092Z,60.10
2023-01-06T04:38:28.086Z,55.75
2023-01-06T04:39:28.061Z,56.88
2023-01-06T04:40:28.167Z,58.33
2023-01-06T04:41:28.076Z,58.33
2023-01-06T04:42:28.066Z,53.01
2023-01-06T04:43:28.062Z,59.30
2023-01-06T04:44:28.029Z,56.56
2023-01-06T04:45:28.085Z,58.81
2023-01-06T04:46:28.062Z,50.27
2023-01-06T04:47:28.036Z,58.81
2023-01-06T04:48:28.051Z,54.79
2023-01-06T04:49:28.029Z,56.07
2023-01-06T04:50:28.007Z,56.07
2023-01-06T04:51:28.037Z,54.79
2023-01-06T04:52:28.016Z,52.37
2023-01-06T04:53:28.041Z,56.72
2023-01-06T04:54:28.005Z,56.56
2023-01-06T04:55:28.035Z,57.69
2023-01-06T04:56:28.091Z,52.69
2023-01-06T04:57:27.992Z,59.30
2023-01-06T04:58:28.017Z,56.24
2023-01-06T04:59:27.953Z,55.91
2023-01-06T05:00:27.969Z,54.14
2023-01-06T05:01:28.094Z,51.56
2023-01-06T05:02:27.953Z,49.47
2023-01-06T05:03:27.968Z,51.24
2023-01-06T05:04:30.180Z,59.46
2023-01-06T05:05:28.930Z,60.26
2023-01-06T05:06:27.934Z,58.97
2023-01-06T05:07:27.902Z,57.85
2023-01-06T05:08:27.925Z,60.59
2023-01-06T05:09:27.920Z,52.69
2023-01-06T05:10:27.925Z,56.24
2023-01-06T05:11:27.909Z,56.56
2023-01-06T05:12:27.954Z,55.59
2023-01-06T05:13:27.858Z,58.33
2023-01-06T05:14:27.922Z,58.65
2023-01-06T05:15:27.876Z,52.05
2023-01-06T05:16:27.916Z,51.56
2023-01-06T05:17:27.873Z,52.37
2023-01-06T05:18:27.868Z,55.27
2023-01-06T05:19:27.890Z,59.62
2023-01-06T05:20:27.894Z,60.10
2023-01-06T05:21:27.850Z,55.91
2023-01-06T05:22:27.840Z,56.72
2023-01-06T05:23:27.834Z,55.59
2023-01-06T05:24:27.859Z,59.46
2023-01-06T05:25:27.816Z,59.14
2023-01-06T05:26:27.823Z,59.78
2023-01-06T05:27:27.811Z,60.91
2023-01-06T05:28:27.872Z,61.55
2023-01-06T05:29:27.816Z,54.30
2023-01-06T05:30:27.797Z,57.85
2023-01-06T05:31:28.911Z,54.14
2023-01-06T05:32:27.830Z,55.27
2023-01-06T05:33:27.772Z,56.24
2023-01-06T05:34:27.774Z,58.49
2023-01-06T05:35:27.771Z,59.62
2023-01-06T05:36:27.757Z,58.81
2023-01-06T05:37:27.799Z,59.62
2023-01-06T05:38:27.743Z,59.30
2023-01-06T05:39:27.750Z,59.14
2023-01-06T05:40:27.780Z,56.24
2023-01-06T05:41:27.832Z,58.49
2023-01-06T05:42:27.732Z,58.01
2023-01-06T05:43:27.722Z,61.07
2023-01-06T05:44:27.796Z,61.07
2023-01-06T05:45:27.711Z,56.24
2023-01-06T05:46:27.764Z,59.62
2023-01-06T05:47:27.706Z,57.85
2023-01-06T05:48:27.700Z,57.85
2023-01-06T05:49:27.712Z,59.78
2023-01-06T05:50:27.687Z,59.78
2023-01-06T05:51:27.678Z,60.26
2023-01-06T05:52:27.711Z,59.14
2023-01-06T05:53:27.665Z,57.20
2023-01-06T05:54:27.681Z,60.75
2023-01-06T05:55:27.664Z,58.01
2023-01-06T05:56:27.646Z,59.46
2023-01-06T05:57:27.793Z,58.81
2023-01-06T05:58:27.665Z,60.42
2023-01-06T05:59:27.653Z,58.81
2023-01-06T06:00:27.708Z,62.84
2023-01-06T06:01:27.709Z,63.16
2023-01-06T06:02:27.686Z,63.33
2023-01-06T06:03:27.699Z,63.65
2023-01-06T06:04:27.615Z,63.49
2023-01-06T06:05:27.656Z,57.04
2023-01-06T06:06:27.604Z,58.97
2023-01-06T06:07:27.625Z,56.88
2023-01-06T06:08:27.621Z,58.17
2023-01-06T06:09:27.604Z,58.65
2023-01-06T06:10:27.657Z,54.62
2023-01-06T06:11:27.600Z,59.30
2023-01-06T06:12:27.602Z,58.97
2023-01-06T06:13:27.564Z,57.20
2023-01-06T06:14:27.590Z,60.10
2023-01-06T06:15:27.589Z,58.49
2023-01-06T06:16:27.709Z,60.26
2023-01-06T06:17:27.568Z,63.81
2023-01-06T06:18:27.558Z,57.69
2023-01-06T06:19:27.584Z,59.78
2023-01-06T06:20:27.563Z,60.26
2023-01-06T06:21:27.534Z,58.33
2023-01-06T06:22:27.537Z,57.20
2023-01-06T06:23:27.523Z,58.81
2023-01-06T06:24:27.524Z,58.33
2023-01-06T06:25:27.544Z,58.17
2023-01-06T06:26:27.528Z,61.07
2023-01-06T06:27:27.503Z,54.14
2023-01-06T06:28:27.496Z,56.07
2023-01-06T06:29:27.503Z,59.14
2023-01-06T06:30:27.522Z,60.59
2023-01-06T06:31:27.623Z,54.95
2023-01-06T06:32:27.575Z,57.36
2023-01-06T06:33:27.493Z,58.33
2023-01-06T06:34:27.487Z,57.69
2023-01-06T06:35:27.500Z,57.04
2023-01-06T06:36:27.524Z,59.46
2023-01-06T06:37:27.451Z,60.91
2023-01-06T06:38:27.454Z,54.30
2023-01-06T06:39:27.475Z,60.26
2023-01-06T06:40:27.444Z,58.17
2023-01-06T06:41:27.484Z,59.46
2023-01-06T06:42:27.429Z,58.33
2023-01-06T06:43:27.458Z,59.14
2023-01-06T06:44:27.425Z,60.10
2023-01-06T06:45:27.477Z,58.01
2023-01-06T06:46:27.434Z,61.87
2023-01-06T06:47:27.419Z,58.01
2023-01-06T06:48:27.484Z,59.78
2023-01-06T06:49:27.418Z,59.78
2023-01-06T06:50:27.721Z,66.71
2023-01-06T06:51:27.419Z,57.52
2023-01-06T06:52:27.443Z,61.55
2023-01-06T06:53:27.424Z,57.20
2023-01-06T06:54:27.376Z,55.11
2023-01-06T06:55:27.387Z,59.46
2023-01-06T06:56:27.492Z,58.01
2023-01-06T06:57:27.434Z,56.24
2023-01-06T06:58:27.434Z,58.33
2023-01-06T06:59:27.422Z,56.56
2023-01-06T07:00:27.356Z,60.10
2023-01-06T07:01:27.467Z,57.04
2023-01-06T07:02:27.387Z,64.94
2023-01-06T07:03:27.350Z,55.75
2023-01-06T07:04:27.520Z,57.52
2023-01-06T07:05:27.311Z,58.17
2023-01-06T07:06:28.852Z,61.07
2023-01-06T07:07:28.367Z,59.14
2023-01-06T07:08:27.336Z,54.14
2023-01-06T07:09:27.340Z,62.52
2023-01-06T07:10:27.357Z,58.17
2023-01-06T07:11:27.318Z,60.59
2023-01-06T07:12:27.313Z,56.72
2023-01-06T07:13:27.292Z,59.46
2023-01-06T07:14:27.281Z,58.17
2023-01-06T07:15:27.329Z,58.49
2023-01-06T07:16:27.297Z,62.36
2023-01-06T07:17:27.273Z,58.33
2023-01-06T07:18:27.273Z,59.94
2023-01-06T07:19:27.280Z,60.10
2023-01-06T07:20:27.345Z,64.45
2023-01-06T07:21:27.258Z,59.94
2023-01-06T07:22:27.238Z,58.17
2023-01-06T07:23:27.237Z,58.81
2023-01-06T07:24:27.212Z,63.16
2023-01-06T07:25:27.223Z,63.16
2023-01-06T07:26:27.237Z,60.75
2023-01-06T07:27:27.236Z,60.10
2023-01-06T07:28:27.264Z,60.10
2023-01-06T07:29:27.204Z,62.36
2023-01-06T07:30:27.197Z,60.59
2023-01-06T07:31:27.284Z,57.20
2023-01-06T07:32:27.272Z,58.17
2023-01-06T07:33:27.220Z,60.59
2023-01-06T07:34:27.169Z,59.62
2023-01-06T07:35:27.208Z,60.59
2023-01-06T07:36:27.250Z,58.33
2023-01-06T07:37:27.172Z,60.10
2023-01-06T07:38:27.177Z,60.42
2023-01-06T07:39:27.182Z,58.33
2023-01-06T07:40:27.155Z,55.27
2023-01-06T07:41:27.167Z,60.91
2023-01-06T07:42:27.150Z,59.78
2023-01-06T07:43:27.190Z,57.69
2023-01-06T07:44:27.179Z,60.10
2023-01-06T07:45:27.118Z,54.62
2023-01-06T07:46:27.199Z,60.59
2023-01-06T07:47:27.109Z,65.10
2023-01-06T07:48:27.120Z,59.94
2023-01-06T07:49:27.122Z,61.39
2023-01-06T07:50:27.084Z,60.59
2023-01-06T07:51:27.090Z,59.78
2023-01-06T07:52:27.156Z,56.56
2023-01-06T07:53:27.055Z,60.91
2023-01-06T07:54:27.100Z,59.78
2023-01-06T07:55:27.057Z,57.69
2023-01-06T07:56:27.059Z,56.56
2023-01-06T07:57:27.065Z,60.42
2023-01-06T07:58:27.053Z,58.17
2023-01-06T07:59:27.073Z,62.68
2023-01-06T08:00:27.050Z,61.87
2023-01-06T08:01:27.184Z,61.07
2023-01-06T08:02:27.179Z,64.29
2023-01-06T08:03:27.117Z,57.69
2023-01-06T08:04:27.004Z,61.07
2023-01-06T08:05:27.012Z,58.97
2023-01-06T08:06:27.240Z,58.17
2023-01-06T08:07:27.106Z,60.42
2023-01-06T08:08:27.162Z,58.17
2023-01-06T08:09:27.017Z,60.59
2023-01-06T08:10:27.012Z,63.16
2023-01-06T08:11:26.994Z,60.59
2023-01-06T08:12:26.980Z,59.46
2023-01-06T08:13:26.982Z,60.91
2023-01-06T08:14:26.962Z,59.94
2023-01-06T08:15:27.021Z,59.30
2023-01-06T08:16:26.966Z,58.49
2023-01-06T08:17:26.960Z,59.62
2023-01-06T08:18:26.961Z,61.87
2023-01-06T08:19:26.934Z,63.65
2023-01-06T08:20:26.981Z,60.42
2023-01-06T08:21:26.991Z,61.87
2023-01-06T08:22:26.939Z,58.81
2023-01-06T08:23:26.999Z,62.36
2023-01-06T08:24:27.004Z,59.46
2023-01-06T08:25:26.928Z,61.87
2023-01-06T08:26:26.942Z,57.36
2023-01-06T08:27:26.929Z,58.97
2023-01-06T08:28:26.915Z,61.55
2023-01-06T08:29:26.909Z,62.04
2023-01-06T08:30:26.901Z,59.78
2023-01-06T08:31:26.983Z,59.62
2023-01-06T08:32:26.911Z,60.26
2023-01-06T08:33:26.886Z,60.75
2023-01-06T08:34:26.873Z,62.04
2023-01-06T08:35:26.918Z,57.85
2023-01-06T08:36:26.880Z,60.10
2023-01-06T08:37:27.217Z,61.07
2023-01-06T08:38:26.860Z,61.23
2023-01-06T08:39:26.838Z,58.17
2023-01-06T08:40:26.855Z,58.01
2023-01-06T08:41:26.851Z,59.78
2023-01-06T08:42:26.884Z,61.07
2023-01-06T08:43:26.821Z,59.14
2023-01-06T08:44:26.872Z,58.49
2023-01-06T08:45:26.840Z,61.23
2023-01-06T08:46:26.920Z,62.36
2023-01-06T08:47:26.840Z,61.39
2023-01-06T08:48:26.813Z,62.36
2023-01-06T08:49:26.905Z,60.26
2023-01-06T08:50:27.499Z,57.85
2023-01-06T08:51:26.809Z,60.75
2023-01-06T08:52:26.795Z,58.81
2023-01-06T08:53:26.781Z,59.94
2023-01-06T08:54:26.778Z,59.62
2023-01-06T08:55:26.823Z,60.75
2023-01-06T08:56:26.883Z,52.69
2023-01-06T08:57:26.792Z,58.81
2023-01-06T08:58:26.764Z,60.10
2023-01-06T08:59:26.757Z,55.91
2023-01-06T09:00:26.801Z,60.26
2023-01-06T09:01:26.954Z,57.85
2023-01-06T09:02:27.048Z,59.46
2023-01-06T09:03:26.935Z,63.16
2023-01-06T09:04:26.891Z,58.49
2023-01-06T09:05:27.066Z,60.42
2023-01-06T09:06:27.057Z,59.78
2023-01-06T09:07:26.866Z,58.49
2023-01-06T09:08:26.856Z,60.59
2023-01-06T09:09:26.735Z,59.14
2023-01-06T09:10:26.734Z,60.26
2023-01-06T09:11:26.684Z,58.33
2023-01-06T09:12:26.801Z,60.42
2023-01-06T09:13:26.678Z,56.88
2023-01-06T09:14:26.717Z,57.20
2023-01-06T09:15:26.663Z,58.17
2023-01-06T09:16:26.750Z,63.65
2023-01-06T09:17:26.709Z,58.33
2023-01-06T09:18:26.666Z,56.24
2023-01-06T09:19:26.668Z,58.17
2023-01-06T09:20:26.662Z,55.43
2023-01-06T09:21:26.680Z,58.65
2023-01-06T09:22:26.668Z,59.14
2023-01-06T09:23:26.697Z,58.01
2023-01-06T09:24:26.633Z,58.17
2023-01-06T09:25:26.624Z,57.36
2023-01-06T09:26:26.614Z,54.62
2023-01-06T09:27:26.656Z,53.17
2023-01-06T09:28:26.678Z,60.26
2023-01-06T09:29:26.630Z,70.58
2023-01-06T09:30:26.624Z,61.39
2023-01-06T09:31:26.664Z,56.88
2023-01-06T09:32:26.597Z,65.10
2023-01-06T09:33:27.049Z,61.23
2023-01-06T09:34:27.627Z,57.36
2023-01-06T09:35:26.567Z,57.85
2023-01-06T09:36:26.689Z,58.33
2023-01-06T09:37:26.589Z,60.59
2023-01-06T09:38:26.583Z,59.30
2023-01-06T09:39:26.578Z,58.01
2023-01-06T09:40:26.557Z,58.01
2023-01-06T09:41:26.573Z,60.26
2023-01-06T09:42:26.532Z,61.23
2023-01-06T09:43:26.648Z,62.52
2023-01-06T09:44:26.672Z,59.30
2023-01-06T09:45:26.633Z,59.14
2023-01-06T09:46:26.537Z,59.46
2023-01-06T09:47:26.540Z,58.97
2023-01-06T09:48:26.509Z,59.46
2023-01-06T09:49:26.551Z,61.23
2023-01-06T09:50:26.491Z,58.49
2023-01-06T09:51:26.511Z,59.46
2023-01-06T09:52:26.483Z,60.59
2023-01-06T09:53:26.492Z,58.49
2023-01-06T09:54:26.516Z,58.33
2023-01-06T09:55:26.469Z,57.69
2023-01-06T09:56:26.492Z,67.35
2023-01-06T09:57:26.473Z,72.67
2023-01-06T09:58:26.525Z,59.46
2023-01-06T09:59:26.482Z,60.75
2023-01-06T10:00:26.488Z,60.75
2023-01-06T10:01:26.573Z,62.68
2023-01-06T10:02:26.484Z,65.26
2023-01-06T10:03:26.432Z,63.97
2023-01-06T10:04:26.423Z,69.29
2023-01-06T10:05:26.458Z,69.61
2023-01-06T10:06:26.706Z,69.13
2023-01-06T10:07:26.385Z,58.81
2023-01-06T10:08:26.389Z,59.46
2023-01-06T10:09:26.385Z,58.65
2023-01-06T10:10:26.407Z,60.75
2023-01-06T10:11:26.398Z,60.75
2023-01-06T10:12:26.365Z,59.78
2023-01-06T10:13:26.372Z,59.62
2023-01-06T10:14:26.344Z,70.74
2023-01-06T10:15:27.839Z,61.71
2023-01-06T10:16:27.492Z,59.14
2023-01-06T10:17:26.324Z,60.75
2023-01-06T10:18:26.338Z,59.30
2023-01-06T10:19:26.414Z,58.81
2023-01-06T10:20:26.368Z,58.33
2023-01-06T10:21:26.322Z,55.75
2023-01-06T10:22:26.709Z,59.94
2023-01-06T10:23:26.304Z,61.87
2023-01-06T10:24:26.297Z,60.10
2023-01-06T10:25:26.303Z,60.75
2023-01-06T10:26:26.291Z,58.33
2023-01-06T10:27:26.314Z,58.49
2023-01-06T10:28:26.279Z,58.49
2023-01-06T10:29:26.277Z,64.78
2023-01-06T10:30:30.341Z,56.56
2023-01-06T10:31:27.496Z,58.97
2023-01-06T10:32:26.367Z,57.52
2023-01-06T10:34:26.262Z,58.97
2023-01-06T10:35:26.279Z,58.17
2023-01-06T10:36:29.085Z,57.85
2023-01-06T10:37:26.297Z,60.10
2023-01-06T10:38:26.341Z,60.59
2023-01-06T10:39:26.245Z,58.17
2023-01-06T10:40:26.208Z,58.49
2023-01-06T10:41:26.241Z,57.04
2023-01-06T10:42:26.207Z,57.85
2023-01-06T10:43:26.208Z,60.75
2023-01-06T10:44:26.180Z,59.62
2023-01-06T10:45:26.174Z,58.65
2023-01-06T10:46:26.282Z,57.52
2023-01-06T10:47:26.183Z,55.11
2023-01-06T10:48:26.282Z,54.79
2023-01-06T10:49:26.179Z,58.33
2023-01-06T10:50:26.208Z,58.49
2023-01-06T10:51:26.156Z,58.33
2023-01-06T10:52:26.170Z,58.81
2023-01-06T10:53:26.206Z,58.33
2023-01-06T10:54:26.143Z,61.23
2023-01-06T10:55:26.130Z,59.14
2023-01-06T10:56:26.116Z,58.17
2023-01-06T10:57:26.124Z,57.85
2023-01-06T10:58:26.165Z,59.78
2023-01-06T10:59:26.154Z,60.59
2023-01-06T11:00:26.114Z,60.42
2023-01-06T11:01:26.381Z,59.78
2023-01-06T11:02:26.122Z,64.45
2023-01-06T11:03:33.185Z,77.02
2023-01-06T11:04:28.184Z,62.04
2023-01-06T11:05:26.106Z,58.97
2023-01-06T11:06:27.085Z,60.42
2023-01-06T11:07:26.322Z,60.42
2023-01-06T11:08:26.081Z,58.17
2023-01-06T11:09:26.078Z,60.26
2023-01-06T11:10:26.119Z,59.46
2023-01-06T11:11:28.646Z,62.36
2023-01-06T11:12:27.091Z,59.14
2023-01-06T11:13:26.054Z,59.46
2023-01-06T11:14:26.017Z,59.78
2023-01-06T11:15:26.031Z,60.59
2023-01-06T11:16:26.167Z,59.30
2023-01-06T11:17:26.049Z,60.91
2023-01-06T11:18:26.004Z,58.01
2023-01-06T11:19:25.989Z,62.84
2023-01-06T11:20:26.068Z,61.07
2023-01-06T11:21:26.045Z,61.87
2023-01-06T11:22:25.984Z,61.07
2023-01-06T11:23:25.978Z,60.75
2023-01-06T11:24:26.046Z,57.20
2023-01-06T11:25:25.975Z,74.77
2023-01-06T11:26:26.052Z,66.39
2023-01-06T11:27:25.946Z,58.49
2023-01-06T11:28:25.953Z,58.97
2023-01-06T11:29:25.941Z,59.30
2023-01-06T11:30:25.967Z,58.33
2023-01-06T11:31:26.011Z,60.26
2023-01-06T11:32:25.959Z,58.81
2023-01-06T11:33:25.944Z,59.78
2023-01-06T11:34:25.986Z,60.75
2023-01-06T11:35:25.917Z,59.78
2023-01-06T11:36:26.045Z,59.14
2023-01-06T11:37:25.916Z,60.91
2023-01-06T11:38:25.896Z,61.39
2023-01-06T11:39:25.913Z,60.75
2023-01-06T11:40:25.881Z,60.91
2023-01-06T11:41:25.866Z,59.46
2023-01-06T11:42:25.893Z,58.81
2023-01-06T11:43:25.856Z,57.36
2023-01-06T11:44:26.061Z,55.75
2023-01-06T11:45:25.871Z,57.36
2023-01-06T11:46:25.828Z,59.78
2023-01-06T11:47:25.884Z,67.19
2023-01-06T11:48:25.861Z,60.75
2023-01-06T11:49:25.839Z,58.97
2023-01-06T11:50:25.836Z,59.14
2023-01-06T11:51:25.791Z,58.81
2023-01-06T11:52:25.886Z,58.01
2023-01-06T11:53:25.850Z,61.55
2023-01-06T11:54:25.807Z,59.62
2023-01-06T11:55:25.851Z,58.17
2023-01-06T11:56:25.925Z,58.01
2023-01-06T11:57:25.766Z,59.62
2023-01-06T11:58:25.857Z,57.85
2023-01-06T11:59:25.819Z,59.78
2023-01-06T12:00:25.754Z,59.78
2023-01-06T12:01:25.816Z,62.04
2023-01-06T12:02:25.830Z,57.85
2023-01-06T12:03:25.846Z,56.88
2023-01-06T12:04:25.771Z,59.78
2023-01-06T12:05:25.719Z,58.49
2023-01-06T12:06:25.810Z,55.11
2023-01-06T12:07:25.717Z,55.59
2023-01-06T12:08:25.922Z,57.04
2023-01-06T12:09:25.722Z,60.59
2023-01-06T12:10:25.726Z,60.10
2023-01-06T12:11:25.703Z,64.94
2023-01-06T12:12:25.864Z,70.58
2023-01-06T12:13:25.709Z,57.85
2023-01-06T12:14:29.885Z,59.14
2023-01-06T12:15:26.669Z,59.14
2023-01-06T12:16:25.822Z,59.78
2023-01-06T12:17:25.873Z,58.01
2023-01-06T12:18:25.734Z,59.94
2023-01-06T12:19:25.656Z,60.91
2023-01-06T12:20:25.819Z,56.56
2023-01-06T12:21:25.690Z,59.78
2023-01-06T12:22:25.629Z,63.97
2023-01-06T12:23:25.622Z,68.16
2023-01-06T12:24:25.721Z,59.78
2023-01-06T12:25:25.637Z,59.94
2023-01-06T12:26:25.663Z,60.26
2023-01-06T12:27:25.629Z,58.33
2023-01-06T12:28:25.641Z,57.04
2023-01-06T12:29:25.656Z,68.32
2023-01-06T12:30:25.643Z,65.10
2023-01-06T12:31:25.598Z,59.30
2023-01-06T12:32:25.577Z,59.62
2023-01-06T12:33:25.585Z,58.49
2023-01-06T12:34:25.596Z,60.10
2023-01-06T12:35:25.655Z,58.01
2023-01-06T12:36:25.692Z,60.42
2023-01-06T12:37:25.559Z,60.26
2023-01-06T12:38:25.595Z,60.42
2023-01-06T12:39:25.653Z,58.49
2023-01-06T12:40:25.609Z,59.14
2023-01-06T12:41:25.543Z,60.26
2023-01-06T12:42:25.511Z,58.81
2023-01-06T12:43:25.545Z,60.42
2023-01-06T12:44:25.525Z,62.84
2023-01-06T12:45:25.495Z,59.46
2023-01-06T12:46:25.526Z,58.97
2023-01-06T12:47:25.656Z,59.14
2023-01-06T12:48:25.515Z,59.78
2023-01-06T12:49:25.545Z,57.85
2023-01-06T12:50:25.512Z,58.33
2023-01-06T12:51:25.470Z,60.10
2023-01-06T12:52:25.463Z,62.36
2023-01-06T12:53:25.472Z,57.85